Riverdance — C6CG3 — position and weather

sailwx.info

Track history (hours):
 
Tides and Currents Weather Stations Pressure Air Temp Water Temp Dewpoint Dewpoint Depression Visibility Wind Speed Wind Dir Waves Ship Positions

Riverdance

Operator: Crescent Marine Services Ltd

Last reported at 2019-Jul-14 03:35 UTC. Time now 2019-Jul-16 00:20 UTC.
Position N 59°19' W 001°40'.

Length 72 m; draft 5.8 m.

Type: Other ship. MMSI: 311000463.

Date/timePositionNaut miles runAvg speedWind from/ knotsBaromVisibWave heightAir tempDewpointWater temp
2019-Jul-14 03:35N 59°19' W 001°40'1010.8
2019-Jul-14 02:42N 59°09' W 001°39'2310.9
2019-Jul-14 00:33N 58°46' W 001°37'110.8
2019-Jul-14 00:26N 58°44' W 001°36'410.6
2019-Jul-14 00:01N 58°40' W 001°36'510.4
2019-Jul-13 23:30N 58°35' W 001°36'510.1
2019-Jul-13 23:00N 58°30' W 001°36'5 9.9
2019-Jul-13 22:31N 58°25' W 001°35'9 9.7
2019-Jul-13 21:36N 58°16' W 001°35'37 9.8
2019-Jul-13 17:47N 57°39' W 001°35'310.1
2019-Jul-13 17:30N 57°36' W 001°35'510.2
2019-Jul-13 17:00N 57°31' W 001°35'510.1
2019-Jul-13 16:30N 57°26' W 001°36'5 9.9
2019-Jul-13 16:01N 57°21' W 001°40'610.5
2019-Jul-13 15:26N 57°17' W 001°47'410.3
2019-Jul-13 15:00N 57°13' W 001°53'5 9.7
2019-Jul-13 14:30N 57°10' W 001°59'3 6.2
2019-Jul-13 13:58N 57°09' W 002°05'0 0.0
2019-Jul-13 13:28N 57°09' W 002°05'0 0.0
2019-Jul-13 12:58N 57°09' W 002°05'0 0.0
2019-Jul-13 12:28N 57°09' W 002°05'0 0.0
2019-Jul-13 11:58N 57°09' W 002°05'0 0.0
2019-Jul-13 11:28N 57°09' W 002°05'0 0.0
2019-Jul-13 10:59N 57°09' W 002°05'0 0.0
2019-Jul-13 10:28N 57°09' W 002°05'0 0.0
2019-Jul-13 09:58N 57°09' W 002°05'0 0.0
2019-Jul-13 09:28N 57°09' W 002°05'0 0.0
2019-Jul-13 08:58N 57°09' W 002°05'0 0.0
2019-Jul-13 08:28N 57°09' W 002°05'0 0.0
2019-Jul-13 07:59N 57°09' W 002°05'0 0.0
2019-Jul-13 07:30N 57°09' W 002°05'2 4.4
2019-Jul-13 07:00N 57°10' W 002°01'0 0.0
2019-Jul-13 06:30N 57°10' W 002°01'0 0.0
2019-Jul-13 06:00N 57°10' W 002°01'2 4.1
2019-Jul-13 05:30N 57°11' W 001°58'3 5.7
2019-Jul-13 05:00N 57°12' W 001°53'3 5.9
2019-Jul-13 04:30N 57°13' W 001°48'3 6.4
2019-Jul-13 04:00N 57°14' W 001°42'4 8.1
2019-Jul-13 03:30N 57°15' W 001°35'71 9.1
2019-Jul-12 19:42N 57°35' E 000°32'2 9.4
2019-Jul-12 19:30N 57°36' E 000°35'5 9.3
2019-Jul-12 18:59N 57°37' E 000°44'4 9.1
2019-Jul-12 18:30N 57°38' E 000°52'5 9.1
2019-Jul-12 17:59N 57°40' E 000°60'4 9.2
2019-Jul-12 17:30N 57°41' E 001°08'5 8.9
2019-Jul-12 16:59N 57°41' E 001°17'3 5.8
2019-Jul-12 16:26N 57°41' E 001°23'1 2.5
2019-Jul-12 16:00N 57°40' E 001°24'0 0.5
2019-Jul-12 15:15N 57°40' E 001°24'1 3.4
2019-Jul-12 14:51N 57°39' E 001°26'1 3.1
2019-Jul-12 14:26N 57°40' E 001°25'3 3.1
2019-Jul-12 13:19N 57°41' E 001°31'2 3.2
2019-Jul-12 12:50N 57°41' E 001°28'1 4.0
2019-Jul-12 12:29N 57°41' E 001°25'2 4.0
2019-Jul-12 11:55N 57°41' E 001°21'1 3.0
2019-Jul-12 11:26N 57°41' E 001°23'3 3.9
2019-Jul-12 10:43N 57°40' E 001°29'1 3.9
2019-Jul-12 10:29N 57°39' E 001°28'2 3.9
2019-Jul-12 09:55N 57°39' E 001°24'2 4.0
2019-Jul-12 09:30N 57°39' E 001°21'  
2019-Jul-05 15:25N 57°43' E 001°29'1 0.6
2019-Jul-05 13:35N 57°42' E 001°27'1 3.9
2019-Jul-05 13:18N 57°42' E 001°29'1 3.7
2019-Jul-05 12:59N 57°42' E 001°26'2 4.0
2019-Jul-05 12:24N 57°42' E 001°22'4 2.7
2019-Jul-05 11:06N 57°42' E 001°29'0 3.9
2019-Jul-05 11:00N 57°42' E 001°28'1 0.4
2019-Jul-05 08:51N 57°41' E 001°28'4 4.0
2019-Jul-05 07:52N 57°41' E 001°21'3 1.6
2019-Jul-05 05:55N 57°44' E 001°23'2 4.1
2019-Jul-05 05:23N 57°42' E 001°23'3 1.3
2019-Jul-05 03:22N 57°44' E 001°22'3 1.9
2019-Jul-05 01:55N 57°41' E 001°22'5 8.2
2019-Jul-05 01:21N 57°41' E 001°13'96 9.3
2019-Jul-04 14:58N 57°13' W 001°38'4 8.3
2019-Jul-04 14:30N 57°11' W 001°45'4 8.5
2019-Jul-04 14:00N 57°11' W 001°52'4 8.5
2019-Jul-04 13:30N 57°09' W 001°60'3 5.9
2019-Jul-04 13:01N 57°09' W 002°05'0 0.0
2019-Jul-04 12:31N 57°09' W 002°05'0 0.0
2019-Jul-04 12:01N 57°09' W 002°05'0 0.0
2019-Jul-04 11:31N 57°09' W 002°05'0 0.0
2019-Jul-04 11:01N 57°09' W 002°05'0 0.0
2019-Jul-04 10:28N 57°09' W 002°05'0 0.0
2019-Jul-04 10:01N 57°09' W 002°05'0 0.0
2019-Jul-04 09:31N 57°09' W 002°05'0 0.0
2019-Jul-04 09:01N 57°09' W 002°05'0 0.0
2019-Jul-04 08:31N 57°09' W 002°05'0 0.0
2019-Jul-04 08:01N 57°09' W 002°05'0 0.0
2019-Jul-04 07:31N 57°09' W 002°05'0 0.0
2019-Jul-04 07:01N 57°09' W 002°05'0 0.0
2019-Jul-04 06:31N 57°09' W 002°05'0 0.0
2019-Jul-04 06:01N 57°09' W 002°05'0 0.0
2019-Jul-04 05:28N 57°09' W 002°05'0 0.0
2019-Jul-04 04:58N 57°09' W 002°05'0 0.0
2019-Jul-04 04:31N 57°09' W 002°05'0 0.0
2019-Jul-04 04:01N 57°09' W 002°05'  
Track history (hours):
 
Tides and Currents Weather Stations Pressure Air Temp Water Temp Dewpoint Dewpoint Depression Visibility Wind Speed Wind Dir Waves Ship Positions

Riverdance

Operator: Crescent Marine Services Ltd

Last reported at 2019-Jul-14 03:35 UTC. Time now 2019-Jul-16 00:20 UTC.
Position N 59°19' W 001°40'.

Length 72 m; draft 5.8 m.

Type: Other ship. MMSI: 311000463.

Date/timePositionNaut miles runAvg speedWind from/ knotsBaromVisibWave heightAir tempDewpointWater temp
2019-Jul-14 03:35N 59°19' W 001°40'1010.8
2019-Jul-14 02:42N 59°09' W 001°39'2310.9
2019-Jul-14 00:33N 58°46' W 001°37'110.8
2019-Jul-14 00:26N 58°44' W 001°36'410.6
2019-Jul-14 00:01N 58°40' W 001°36'510.4
2019-Jul-13 23:30N 58°35' W 001°36'510.1
2019-Jul-13 23:00N 58°30' W 001°36'5 9.9
2019-Jul-13 22:31N 58°25' W 001°35'9 9.7
2019-Jul-13 21:36N 58°16' W 001°35'37 9.8
2019-Jul-13 17:47N 57°39' W 001°35'310.1
2019-Jul-13 17:30N 57°36' W 001°35'510.2
2019-Jul-13 17:00N 57°31' W 001°35'510.1
2019-Jul-13 16:30N 57°26' W 001°36'5 9.9
2019-Jul-13 16:01N 57°21' W 001°40'610.5
2019-Jul-13 15:26N 57°17' W 001°47'410.3
2019-Jul-13 15:00N 57°13' W 001°53'5 9.7
2019-Jul-13 14:30N 57°10' W 001°59'3 6.2
2019-Jul-13 13:58N 57°09' W 002°05'0 0.0
2019-Jul-13 13:28N 57°09' W 002°05'0 0.0
2019-Jul-13 12:58N 57°09' W 002°05'0 0.0
2019-Jul-13 12:28N 57°09' W 002°05'0 0.0
2019-Jul-13 11:58N 57°09' W 002°05'0 0.0
2019-Jul-13 11:28N 57°09' W 002°05'0 0.0
2019-Jul-13 10:59N 57°09' W 002°05'0 0.0
2019-Jul-13 10:28N 57°09' W 002°05'0 0.0
2019-Jul-13 09:58N 57°09' W 002°05'0 0.0
2019-Jul-13 09:28N 57°09' W 002°05'0 0.0
2019-Jul-13 08:58N 57°09' W 002°05'0 0.0
2019-Jul-13 08:28N 57°09' W 002°05'0 0.0
2019-Jul-13 07:59N 57°09' W 002°05'0 0.0
2019-Jul-13 07:30N 57°09' W 002°05'2 4.4
2019-Jul-13 07:00N 57°10' W 002°01'0 0.0
2019-Jul-13 06:30N 57°10' W 002°01'0 0.0
2019-Jul-13 06:00N 57°10' W 002°01'2 4.1
2019-Jul-13 05:30N 57°11' W 001°58'3 5.7
2019-Jul-13 05:00N 57°12' W 001°53'3 5.9
2019-Jul-13 04:30N 57°13' W 001°48'3 6.4
2019-Jul-13 04:00N 57°14' W 001°42'4 8.1
2019-Jul-13 03:30N 57°15' W 001°35'71 9.1
2019-Jul-12 19:42N 57°35' E 000°32'2 9.4
2019-Jul-12 19:30N 57°36' E 000°35'5 9.3
2019-Jul-12 18:59N 57°37' E 000°44'4 9.1
2019-Jul-12 18:30N 57°38' E 000°52'5 9.1
2019-Jul-12 17:59N 57°40' E 000°60'4 9.2
2019-Jul-12 17:30N 57°41' E 001°08'5 8.9
2019-Jul-12 16:59N 57°41' E 001°17'3 5.8
2019-Jul-12 16:26N 57°41' E 001°23'1 2.5
2019-Jul-12 16:00N 57°40' E 001°24'0 0.5
2019-Jul-12 15:15N 57°40' E 001°24'1 3.4
2019-Jul-12 14:51N 57°39' E 001°26'1 3.1
2019-Jul-12 14:26N 57°40' E 001°25'3 3.1
2019-Jul-12 13:19N 57°41' E 001°31'2 3.2
2019-Jul-12 12:50N 57°41' E 001°28'1 4.0
2019-Jul-12 12:29N 57°41' E 001°25'2 4.0
2019-Jul-12 11:55N 57°41' E 001°21'1 3.0
2019-Jul-12 11:26N 57°41' E 001°23'3 3.9
2019-Jul-12 10:43N 57°40' E 001°29'1 3.9
2019-Jul-12 10:29N 57°39' E 001°28'2 3.9
2019-Jul-12 09:55N 57°39' E 001°24'2 4.0
2019-Jul-12 09:30N 57°39' E 001°21'  
2019-Jul-05 15:25N 57°43' E 001°29'1 0.6
2019-Jul-05 13:35N 57°42' E 001°27'1 3.9
2019-Jul-05 13:18N 57°42' E 001°29'1 3.7
2019-Jul-05 12:59N 57°42' E 001°26'2 4.0
2019-Jul-05 12:24N 57°42' E 001°22'4 2.7
2019-Jul-05 11:06N 57°42' E 001°29'0 3.9
2019-Jul-05 11:00N 57°42' E 001°28'1 0.4
2019-Jul-05 08:51N 57°41' E 001°28'4 4.0
2019-Jul-05 07:52N 57°41' E 001°21'3 1.6
2019-Jul-05 05:55N 57°44' E 001°23'2 4.1
2019-Jul-05 05:23N 57°42' E 001°23'3 1.3
2019-Jul-05 03:22N 57°44' E 001°22'3 1.9
2019-Jul-05 01:55N 57°41' E 001°22'5 8.2
2019-Jul-05 01:21N 57°41' E 001°13'96 9.3
2019-Jul-04 14:58N 57°13' W 001°38'4 8.3
2019-Jul-04 14:30N 57°11' W 001°45'4 8.5
2019-Jul-04 14:00N 57°11' W 001°52'4 8.5
2019-Jul-04 13:30N 57°09' W 001°60'3 5.9
2019-Jul-04 13:01N 57°09' W 002°05'0 0.0
2019-Jul-04 12:31N 57°09' W 002°05'0 0.0
2019-Jul-04 12:01N 57°09' W 002°05'0 0.0
2019-Jul-04 11:31N 57°09' W 002°05'0 0.0
2019-Jul-04 11:01N 57°09' W 002°05'0 0.0
2019-Jul-04 10:28N 57°09' W 002°05'0 0.0
2019-Jul-04 10:01N 57°09' W 002°05'0 0.0
2019-Jul-04 09:31N 57°09' W 002°05'0 0.0
2019-Jul-04 09:01N 57°09' W 002°05'0 0.0
2019-Jul-04 08:31N 57°09' W 002°05'0 0.0
2019-Jul-04 08:01N 57°09' W 002°05'0 0.0
2019-Jul-04 07:31N 57°09' W 002°05'0 0.0
2019-Jul-04 07:01N 57°09' W 002°05'0 0.0
2019-Jul-04 06:31N 57°09' W 002°05'0 0.0
2019-Jul-04 06:01N 57°09' W 002°05'0 0.0
2019-Jul-04 05:28N 57°09' W 002°05'0 0.0
2019-Jul-04 04:58N 57°09' W 002°05'0 0.0
2019-Jul-04 04:31N 57°09' W 002°05'0 0.0
2019-Jul-04 04:01N 57°09' W 002°05'  

Dump ship's entire track history